CPX440 Details

Departure: Chicago/Rockford International Airport (KRFD)
Arrival: Salt Lake City International Airport (KSLC)
Route: RFD COTON J128 DBQ ALO FOD DDY NORDK6


Current Weather Information
KRFD 251054Z 20007KT 10SM SCT130 BKN170 19/16 A2988 RMK AO2 SLP115 T01940161
KSLC 251054Z 14009KT 10SM SCT085 BKN110 12/06 A2991 RMK AO2 SLP097 P0000 T01170056 VISNO NW RNWY